Time;durP1;ratioP1;P1;durP2;ratioP2;P2;SDS_P1;SDS_P2;PMS_P1;PMS_P2;Temp;Humidity;BMP_temperature;BMP_pressure;BME280_temperature;BME280_humidity;BME280_pressure;Samples;Min_cycle;Max_cycle;Signal;HPM_P1;HPM_P2
2023/08/23 00:00:52;;;;;;;0.25;0.25;;;;;;;;;;5013852;28;20045;-76
2023/08/23 00:03:17;;;;;;;0.30;0.30;;;;;;;;;;5013760;28;20022;-76
2023/08/23 00:05:43;;;;;;;0.35;0.35;;;;;;;;;;4996204;28;20469;-76
2023/08/23 00:08:09;;;;;;;0.20;0.20;;;;;;;;;;5011265;28;20030;-76
2023/08/23 00:10:35;;;;;;;0.30;0.30;;;;;;;;;;5013461;28;20034;-77
2023/08/23 00:13:02;;;;;;;0.30;0.30;;;;;;;;;;5013294;28;20033;-77
2023/08/23 00:15:27;;;;;;;0.30;0.30;;;;;;;;;;5013308;28;20033;-78
2023/08/23 00:17:53;;;;;;;1.27;1.27;;;;;;;;;;5013412;28;20026;-78
2023/08/23 00:20:18;;;;;;;0.30;0.30;;;;;;;;;;5013432;28;20554;-79
2023/08/23 00:22:44;;;;;;;0.30;0.30;;;;;;;;;;5013578;28;20065;-79
2023/08/23 00:25:10;;;;;;;9.52;7.63;;;;;;;;;;5013222;28;20413;-77
2023/08/23 00:27:35;;;;;;;0.30;0.30;;;;;;;;;;4995900;28;20116;-77
2023/08/23 00:30:02;;;;;;;0.30;0.30;;;;;;;;;;4995658;28;20450;-77
2023/08/23 00:32:27;;;;;;;0.25;0.25;;;;;;;;;;5013188;28;20113;-78
2023/08/23 00:34:54;;;;;;;0.30;0.30;;;;;;;;;;4998948;28;20040;-77
2023/08/23 00:37:21;;;;;;;0.60;0.60;;;;;;;;;;5015141;28;20052;-79
2023/08/23 00:39:47;;;;;;;0.20;0.20;;;;;;;;;;5032868;28;20453;-77
2023/08/23 00:42:13;;;;;;;0.47;0.47;;;;;;;;;;5032803;28;20496;-78
2023/08/23 00:44:40;;;;;;;0.20;0.20;;;;;;;;;;5032634;28;20047;-79
2023/08/23 00:47:06;;;;;;;0.20;0.20;;;;;;;;;;5032528;28;20067;-79
2023/08/23 00:49:34;;;;;;;0.30;0.30;;;;;;;;;;5032849;28;20040;-79
2023/08/23 00:52:01;;;;;;;0.60;0.60;;;;;;;;;;5031810;28;20029;-78
2023/08/23 00:54:27;;;;;;;0.20;0.20;;;;;;;;;;5031571;28;20279;-78
2023/08/23 00:56:53;;;;;;;0.30;0.30;;;;;;;;;;5032796;28;20038;-78
2023/08/23 00:59:19;;;;;;;0.32;0.32;;;;;;;;;;5015030;28;20376;-76
2023/08/23 01:01:45;;;;;;;0.30;0.30;;;;;;;;;;5032283;28;20431;-79
2023/08/23 01:04:11;;;;;;;0.20;0.20;;;;;;;;;;5032443;28;20033;-77
2023/08/23 01:06:46;;;;;;;0.32;0.32;;;;;;;;;;5032301;28;20030;-76
2023/08/23 01:09:12;;;;;;;0.30;0.30;;;;;;;;;;5032374;28;20120;-80
2023/08/23 01:11:45;;;;;;;0.30;0.30;;;;;;;;;;5032395;28;20105;-80
2023/08/23 01:14:26;;;;;;;0.20;0.20;;;;;;;;;;5014670;28;20042;-78
2023/08/23 01:16:52;;;;;;;0.20;0.20;;;;;;;;;;5010127;28;20042;-79
2023/08/23 01:19:33;;;;;;;0.30;0.30;;;;;;;;;;4995824;28;20092;-79
2023/08/23 01:21:59;;;;;;;0.22;0.22;;;;;;;;;;5016080;28;20042;-77
2023/08/23 01:24:26;;;;;;;0.20;0.20;;;;;;;;;;5016011;28;20088;-80
2023/08/23 01:26:51;;;;;;;0.20;0.20;;;;;;;;;;5015861;28;20473;-79
2023/08/23 01:29:18;;;;;;;0.20;0.20;;;;;;;;;;5015825;28;20036;-79
2023/08/23 01:31:45;;;;;;;0.20;0.20;;;;;;;;;;5015722;28;20065;-79
2023/08/23 01:34:17;;;;;;;0.20;0.20;;;;;;;;;;5015705;28;20033;-77
2023/08/23 01:36:44;;;;;;;0.20;0.20;;;;;;;;;;4998577;28;20048;-78
2023/08/23 01:39:13;;;;;;;0.20;0.20;;;;;;;;;;4998260;28;20017;-78
2023/08/23 01:41:39;;;;;;;0.28;0.28;;;;;;;;;;5015986;28;20041;-78
2023/08/23 01:44:05;;;;;;;0.20;0.20;;;;;;;;;;4998208;28;20034;-77
2023/08/23 01:46:30;;;;;;;0.20;0.20;;;;;;;;;;5015524;28;20116;-79
2023/08/23 01:48:56;;;;;;;0.30;0.30;;;;;;;;;;5015523;28;20081;-79
2023/08/23 01:51:23;;;;;;;0.20;0.20;;;;;;;;;;4997861;28;20092;-79
2023/08/23 01:53:49;;;;;;;0.20;0.20;;;;;;;;;;5024757;28;20022;-80
2023/08/23 01:56:15;;;;;;;0.20;0.20;;;;;;;;;;5035282;28;20044;-79
2023/08/23 01:58:41;;;;;;;0.20;0.20;;;;;;;;;;5035208;28;20029;-79
2023/08/23 02:01:07;;;;;;;0.60;0.60;;;;;;;;;;5035151;28;20065;-80
2023/08/23 02:03:32;;;;;;;1.48;1.10;;;;;;;;;;5035298;28;20378;-80
2023/08/23 02:05:58;;;;;;;0.30;0.30;;;;;;;;;;5017450;28;20037;-80
2023/08/23 02:08:25;;;;;;;0.20;0.20;;;;;;;;;;5017059;28;20544;-77
2023/08/23 02:10:50;;;;;;;0.20;0.20;;;;;;;;;;5035059;28;20044;-79
2023/08/23 02:13:16;;;;;;;0.20;0.20;;;;;;;;;;5035072;28;20128;-79
2023/08/23 02:15:43;;;;;;;0.20;0.20;;;;;;;;;;5034931;28;20475;-78
2023/08/23 02:18:09;;;;;;;0.20;0.20;;;;;;;;;;5034968;28;20025;-80
2023/08/23 02:20:35;;;;;;;0.20;0.20;;;;;;;;;;5034765;28;20037;-80
2023/08/23 02:23:00;;;;;;;0.25;0.25;;;;;;;;;;5034751;28;20032;-78
2023/08/23 02:25:26;;;;;;;0.20;0.20;;;;;;;;;;5034932;28;20060;-78
2023/08/23 02:27:51;;;;;;;0.20;0.20;;;;;;;;;;5034681;28;20034;-76
2023/08/23 02:30:17;;;;;;;0.20;0.20;;;;;;;;;;5016807;28;20034;-76
2023/08/23 02:32:43;;;;;;;0.20;0.20;;;;;;;;;;5034086;28;20040;-76
2023/08/23 02:35:08;;;;;;;1.70;1.60;;;;;;;;;;5034659;28;20388;-80
2023/08/23 02:37:34;;;;;;;0.20;0.20;;;;;;;;;;5032667;28;20028;-76
2023/08/23 02:40:00;;;;;;;0.20;0.20;;;;;;;;;;5034644;28;20037;-75
2023/08/23 02:42:25;;;;;;;0.20;0.20;;;;;;;;;;5034931;28;20436;-78
2023/08/23 02:44:51;;;;;;;0.20;0.20;;;;;;;;;;5033688;28;20444;-79
2023/08/23 02:47:17;;;;;;;0.20;0.20;;;;;;;;;;5016886;28;20122;-79
2023/08/23 02:49:42;;;;;;;0.55;0.55;;;;;;;;;;5016627;28;20052;-78
2023/08/23 02:52:08;;;;;;;0.73;0.73;;;;;;;;;;5034313;28;20025;-79
2023/08/23 02:54:34;;;;;;;0.20;0.20;;;;;;;;;;5034404;28;20038;-78
2023/08/23 02:57:00;;;;;;;0.20;0.20;;;;;;;;;;5034730;28;20024;-80
2023/08/23 02:59:26;;;;;;;0.20;0.20;;;;;;;;;;5034385;28;20120;-82
2023/08/23 03:01:52;;;;;;;0.40;0.40;;;;;;;;;;5032624;28;20087;-77
2023/08/23 03:04:17;;;;;;;0.25;0.25;;;;;;;;;;5029309;28;20021;-80
2023/08/23 03:06:43;;;;;;;0.20;0.20;;;;;;;;;;5012661;28;20036;-79
2023/08/23 03:09:09;;;;;;;0.40;0.40;;;;;;;;;;5012964;28;20049;-79
2023/08/23 03:11:34;;;;;;;0.20;0.20;;;;;;;;;;5012974;28;20026;-79
2023/08/23 03:14:00;;;;;;;0.20;0.20;;;;;;;;;;5023464;28;20041;-78
2023/08/23 03:16:25;;;;;;;0.20;0.20;;;;;;;;;;4997116;28;20037;-78
2023/08/23 03:18:51;;;;;;;0.20;0.20;;;;;;;;;;5012504;28;20025;-80
2023/08/23 03:21:17;;;;;;;0.20;0.20;;;;;;;;;;5041862;28;20036;-79
2023/08/23 03:23:42;;;;;;;0.20;0.20;;;;;;;;;;5024800;28;20037;-80
2023/08/23 03:26:08;;;;;;;0.20;0.20;;;;;;;;;;5009799;28;20060;-78
2023/08/23 03:28:33;;;;;;;0.20;0.20;;;;;;;;;;5013709;28;20077;-79
2023/08/23 03:31:04;;;;;;;0.20;0.20;;;;;;;;;;5030979;28;20388;-80
2023/08/23 03:33:30;;;;;;;0.20;0.20;;;;;;;;;;5029750;28;20037;-78
2023/08/23 03:35:56;;;;;;;0.20;0.20;;;;;;;;;;5011747;28;20127;-78
2023/08/23 03:38:24;;;;;;;0.20;0.20;;;;;;;;;;5030271;28;20044;-78
2023/08/23 03:40:53;;;;;;;0.20;0.20;;;;;;;;;;5030069;28;20029;-79
2023/08/23 03:43:19;;;;;;;0.10;0.10;;;;;;;;;;5011704;28;20095;-77
2023/08/23 03:45:47;;;;;;;0.20;0.20;;;;;;;;;;5027398;28;20370;-76
2023/08/23 03:48:13;;;;;;;0.20;0.20;;;;;;;;;;5029573;28;20040;-79
2023/08/23 03:50:39;;;;;;;0.20;0.20;;;;;;;;;;5029615;28;20034;-79
2023/08/23 03:53:04;;;;;;;0.20;0.20;;;;;;;;;;5029496;28;20037;-78
2023/08/23 03:55:30;;;;;;;0.20;0.20;;;;;;;;;;5030975;28;20041;-77
2023/08/23 03:57:55;;;;;;;0.20;0.20;;;;;;;;;;5029089;28;20457;-77
2023/08/23 04:00:22;;;;;;;0.20;0.20;;;;;;;;;;5028102;28;20500;-78
2023/08/23 04:02:48;;;;;;;0.20;0.20;;;;;;;;;;5029224;28;20033;-77
2023/08/23 04:05:14;;;;;;;0.20;0.20;;;;;;;;;;5007424;28;20036;-79
2023/08/23 04:07:42;;;;;;;0.20;0.20;;;;;;;;;;5010691;28;20033;-78
2023/08/23 04:10:09;;;;;;;0.20;0.20;;;;;;;;;;5029202;28;20044;-79
2023/08/23 04:12:34;;;;;;;0.20;0.20;;;;;;;;;;5029394;28;20044;-80
2023/08/23 04:15:00;;;;;;;0.20;0.20;;;;;;;;;;5029149;28;20038;-76
2023/08/23 04:17:26;;;;;;;0.20;0.20;;;;;;;;;;5028855;28;20033;-78
2023/08/23 04:19:51;;;;;;;0.20;0.20;;;;;;;;;;5029254;28;20417;-78
2023/08/23 04:22:17;;;;;;;0.30;0.30;;;;;;;;;;5029250;28;20075;-77
2023/08/23 04:24:43;;;;;;;0.20;0.20;;;;;;;;;;5028733;28;20578;-78
2023/08/23 04:27:08;;;;;;;0.30;0.30;;;;;;;;;;5029193;28;20037;-76
2023/08/23 04:29:34;;;;;;;0.20;0.20;;;;;;;;;;5007443;28;20124;-76
2023/08/23 04:32:01;;;;;;;0.20;0.20;;;;;;;;;;5009332;28;20044;-76
2023/08/23 04:34:29;;;;;;;0.20;0.20;;;;;;;;;;5026079;28;20038;-77
2023/08/23 04:36:56;;;;;;;0.20;0.20;;;;;;;;;;4991396;28;20026;-76
2023/08/23 04:39:22;;;;;;;0.20;0.20;;;;;;;;;;5025077;28;20100;-76
2023/08/23 04:41:49;;;;;;;1.17;1.17;;;;;;;;;;5009106;28;20425;-77
2023/08/23 04:44:14;;;;;;;0.20;0.20;;;;;;;;;;5028673;28;20041;-75
2023/08/23 04:46:40;;;;;;;0.20;0.20;;;;;;;;;;5008278;28;20037;-77
2023/08/23 04:49:06;;;;;;;0.20;0.20;;;;;;;;;;5025690;28;20124;-76
2023/08/23 04:51:32;;;;;;;0.20;0.20;;;;;;;;;;5007260;28;20497;-76
2023/08/23 04:53:57;;;;;;;0.20;0.20;;;;;;;;;;5009153;28;20061;-78
2023/08/23 04:56:23;;;;;;;0.20;0.20;;;;;;;;;;5018621;28;20029;-75
2023/08/23 04:58:49;;;;;;;0.20;0.20;;;;;;;;;;5017130;28;20037;-76
2023/08/23 05:01:16;;;;;;;0.20;0.20;;;;;;;;;;5016474;28;20025;-77
2023/08/23 05:03:43;;;;;;;0.20;0.20;;;;;;;;;;5014735;28;20049;-77
2023/08/23 05:06:09;;;;;;;0.20;0.20;;;;;;;;;;5033231;28;20384;-79
2023/08/23 05:08:35;;;;;;;0.20;0.20;;;;;;;;;;5033391;28;20112;-79
2023/08/23 05:11:09;;;;;;;0.20;0.20;;;;;;;;;;5032192;28;20060;-76
2023/08/23 05:13:35;;;;;;;0.20;0.20;;;;;;;;;;5014193;28;20030;-76
2023/08/23 05:16:01;;;;;;;0.30;0.30;;;;;;;;;;4997960;28;20037;-77
2023/08/23 05:18:26;;;;;;;0.30;0.30;;;;;;;;;;5014814;28;20491;-77
2023/08/23 05:20:54;;;;;;;0.20;0.20;;;;;;;;;;5016105;28;20025;-77
2023/08/23 05:23:21;;;;;;;0.20;0.20;;;;;;;;;;5027571;28;20038;-76
2023/08/23 05:25:46;;;;;;;0.20;0.20;;;;;;;;;;5029415;28;20091;-79
2023/08/23 05:28:12;;;;;;;0.20;0.20;;;;;;;;;;5032693;28;20898;-78
2023/08/23 05:30:39;;;;;;;0.30;0.30;;;;;;;;;;5035221;28;20075;-77
2023/08/23 05:33:07;;;;;;;0.30;0.30;;;;;;;;;;5015748;28;20036;-79
2023/08/23 05:35:33;;;;;;;0.20;0.20;;;;;;;;;;5031668;28;20045;-78
2023/08/23 05:37:59;;;;;;;0.28;0.28;;;;;;;;;;5033437;28;20045;-79
2023/08/23 05:40:25;;;;;;;0.20;0.20;;;;;;;;;;5034584;28;20072;-78
2023/08/23 05:42:50;;;;;;;0.30;0.30;;;;;;;;;;5041332;28;20029;-77
2023/08/23 05:45:16;;;;;;;0.20;0.20;;;;;;;;;;5019040;28;20038;-76
2023/08/23 05:47:42;;;;;;;0.20;0.20;;;;;;;;;;5042963;28;20029;-78
2023/08/23 05:50:08;;;;;;;0.30;0.30;;;;;;;;;;5037295;28;20045;-78
2023/08/23 05:52:34;;;;;;;0.30;0.30;;;;;;;;;;5016659;28;20037;-76
2023/08/23 05:54:59;;;;;;;0.30;0.30;;;;;;;;;;5034294;28;20044;-76
2023/08/23 05:57:25;;;;;;;0.38;0.38;;;;;;;;;;5039007;28;20519;-78
2023/08/23 05:59:51;;;;;;;0.40;0.40;;;;;;;;;;5053002;28;20028;-78
2023/08/23 06:02:16;;;;;;;0.30;0.30;;;;;;;;;;5054338;28;20021;-76
2023/08/23 06:04:42;;;;;;;0.70;0.70;;;;;;;;;;5051648;28;20025;-76
2023/08/23 06:07:08;;;;;;;0.30;0.30;;;;;;;;;;5030857;28;20264;-75
2023/08/23 06:09:33;;;;;;;0.90;0.90;;;;;;;;;;5013731;28;20135;-78
2023/08/23 06:12:00;;;;;;;0.52;0.52;;;;;;;;;;5031293;28;20362;-76
2023/08/23 06:14:26;;;;;;;0.52;0.52;;;;;;;;;;5031187;28;20077;-78
2023/08/23 06:16:52;;;;;;;0.82;0.82;;;;;;;;;;5031120;28;20021;-77
2023/08/23 06:19:17;;;;;;;0.47;0.47;;;;;;;;;;5031338;28;20037;-77
2023/08/23 06:21:43;;;;;;;0.30;0.30;;;;;;;;;;5030893;28;20052;-78
2023/08/23 06:24:09;;;;;;;0.40;0.40;;;;;;;;;;5012946;28;20067;-79
2023/08/23 06:26:35;;;;;;;1.67;1.58;;;;;;;;;;5013370;28;20485;-78
2023/08/23 06:29:01;;;;;;;2.20;1.77;;;;;;;;;;5031188;28;20116;-78
2023/08/23 06:31:27;;;;;;;0.32;0.32;;;;;;;;;;5031132;28;20427;-79
2023/08/23 06:33:52;;;;;;;0.40;0.40;;;;;;;;;;5030476;28;20029;-78
2023/08/23 06:36:18;;;;;;;3.45;3.22;;;;;;;;;;5031069;28;20376;-78
2023/08/23 06:38:44;;;;;;;0.50;0.50;;;;;;;;;;5031033;28;20129;-78
2023/08/23 06:41:10;;;;;;;0.50;0.50;;;;;;;;;;5030671;28;20044;-78
2023/08/23 06:43:36;;;;;;;0.30;0.30;;;;;;;;;;5030679;28;20049;-76
2023/08/23 06:46:01;;;;;;;0.40;0.40;;;;;;;;;;5012122;28;20025;-75
2023/08/23 06:48:27;;;;;;;0.30;0.30;;;;;;;;;;5030577;28;20128;-77
2023/08/23 06:50:54;;;;;;;0.60;0.60;;;;;;;;;;5030735;28;20061;-78
2023/08/23 06:53:20;;;;;;;0.50;0.40;;;;;;;;;;5012784;28;20052;-77
2023/08/23 06:55:45;;;;;;;0.60;0.60;;;;;;;;;;5029784;28;20022;-76
2023/08/23 06:58:11;;;;;;;0.50;0.50;;;;;;;;;;5036097;28;20041;-79
2023/08/23 07:00:36;;;;;;;0.32;0.32;;;;;;;;;;5050272;28;20033;-77
2023/08/23 07:03:02;;;;;;;0.60;0.60;;;;;;;;;;5050356;28;20110;-75
2023/08/23 07:05:28;;;;;;;0.45;0.45;;;;;;;;;;5032448;28;20025;-75
2023/08/23 07:07:54;;;;;;;0.40;0.40;;;;;;;;;;5049963;28;20041;-78
2023/08/23 07:10:20;;;;;;;0.40;0.40;;;;;;;;;;5050068;28;20032;-79
2023/08/23 07:12:46;;;;;;;0.60;0.60;;;;;;;;;;5050066;28;20037;-77
2023/08/23 07:15:12;;;;;;;1.08;1.08;;;;;;;;;;5050452;28;20028;-77
2023/08/23 07:17:38;;;;;;;0.40;0.40;;;;;;;;;;5049723;28;20037;-77
2023/08/23 07:20:04;;;;;;;0.40;0.40;;;;;;;;;;5049531;28;20480;-80
2023/08/23 07:22:30;;;;;;;1.30;1.20;;;;;;;;;;5050069;28;20061;-77
2023/08/23 07:24:56;;;;;;;3.72;3.45;;;;;;;;;;5049077;28;20485;-76
2023/08/23 07:27:22;;;;;;;0.32;0.32;;;;;;;;;;5029292;28;20128;-76
2023/08/23 07:29:47;;;;;;;0.57;0.57;;;;;;;;;;5029355;28;20041;-76
2023/08/23 07:32:13;;;;;;;0.50;0.50;;;;;;;;;;5026742;28;20092;-77
2023/08/23 07:34:39;;;;;;;0.30;0.30;;;;;;;;;;5008094;28;20079;-74
2023/08/23 07:37:05;;;;;;;0.40;0.40;;;;;;;;;;5020583;28;20040;-75
2023/08/23 07:39:31;;;;;;;3.67;2.65;;;;;;;;;;5028927;28;20034;-77
2023/08/23 07:41:57;;;;;;;1.75;0.93;;;;;;;;;;5027753;28;20042;-78
2023/08/23 07:44:23;;;;;;;0.40;0.40;;;;;;;;;;5020492;28;20032;-76
2023/08/23 07:46:49;;;;;;;0.40;0.40;;;;;;;;;;5028965;28;20025;-75
2023/08/23 07:49:15;;;;;;;0.40;0.40;;;;;;;;;;5028341;28;20081;-79
2023/08/23 07:51:40;;;;;;;1.27;1.00;;;;;;;;;;5026610;28;20021;-79
2023/08/23 07:54:07;;;;;;;1.27;0.80;;;;;;;;;;5028259;28;20045;-78
2023/08/23 07:56:33;;;;;;;0.40;0.40;;;;;;;;;;5026638;28;20038;-79
2023/08/23 07:58:59;;;;;;;1.73;1.30;;;;;;;;;;5028873;28;20033;-78
2023/08/23 08:01:24;;;;;;;0.80;0.80;;;;;;;;;;5026571;28;20049;-78
2023/08/23 08:03:51;;;;;;;0.70;0.70;;;;;;;;;;5028768;28;20025;-78
2023/08/23 08:06:17;;;;;;;0.70;0.70;;;;;;;;;;5026973;28;20083;-78
2023/08/23 08:08:43;;;;;;;1.52;1.00;;;;;;;;;;5016365;28;20048;-79
2023/08/23 08:11:12;;;;;;;1.65;1.50;;;;;;;;;;5028286;28;20221;-75
2023/08/23 08:13:38;;;;;;;0.57;0.57;;;;;;;;;;5028822;28;20052;-68
2023/08/23 08:16:11;;;;;;;0.50;0.50;;;;;;;;;;5028110;28;20025;-69
2023/08/23 08:18:37;;;;;;;1.65;1.55;;;;;;;;;;5010024;28;20095;-72
2023/08/23 08:21:03;;;;;;;2.17;1.98;;;;;;;;;;5009788;28;20518;-68
2023/08/23 08:23:29;;;;;;;1.42;1.33;;;;;;;;;;5010614;28;20037;-69
2023/08/23 08:25:55;;;;;;;2.08;1.45;;;;;;;;;;5012150;28;20065;-69
2023/08/23 08:28:21;;;;;;;0.40;0.40;;;;;;;;;;5030926;28;20041;-69
2023/08/23 08:30:47;;;;;;;1.50;1.40;;;;;;;;;;5031252;28;20095;-71
2023/08/23 08:33:13;;;;;;;1.40;0.88;;;;;;;;;;5028767;28;20112;-69
2023/08/23 08:35:39;;;;;;;1.45;1.35;;;;;;;;;;5010743;28;20100;-68
2023/08/23 08:38:05;;;;;;;0.60;0.60;;;;;;;;;;5027736;28;20144;-69
2023/08/23 08:40:31;;;;;;;0.40;0.40;;;;;;;;;;5028049;28;20385;-70
2023/08/23 08:42:58;;;;;;;1.23;1.13;;;;;;;;;;5028558;28;20095;-70
2023/08/23 08:45:23;;;;;;;0.50;0.50;;;;;;;;;;5028601;28;20033;-69
2023/08/23 08:47:50;;;;;;;1.60;1.50;;;;;;;;;;5027903;28;20045;-70
2023/08/23 08:50:17;;;;;;;0.70;0.70;;;;;;;;;;5028391;28;20048;-70
2023/08/23 08:52:46;;;;;;;1.15;1.15;;;;;;;;;;5027995;28;20391;-68
2023/08/23 08:55:12;;;;;;;0.60;0.57;;;;;;;;;;5010485;28;20040;-68
2023/08/23 08:57:38;;;;;;;0.40;0.40;;;;;;;;;;5028249;28;20087;-74
2023/08/23 09:00:07;;;;;;;0.57;0.57;;;;;;;;;;5027676;28;20044;-73
2023/08/23 09:02:34;;;;;;;5.68;3.65;;;;;;;;;;4994700;28;20120;-71
2023/08/23 09:05:00;;;;;;;0.50;0.50;;;;;;;;;;5010250;28;20029;-69
2023/08/23 09:07:26;;;;;;;0.50;0.50;;;;;;;;;;5027703;28;20087;-70
2023/08/23 09:09:52;;;;;;;0.55;0.55;;;;;;;;;;5010116;28;20080;-69
2023/08/23 09:12:17;;;;;;;0.60;0.60;;;;;;;;;;5010344;28;20052;-69
2023/08/23 09:14:47;;;;;;;0.80;0.77;;;;;;;;;;5027762;28;20034;-69
2023/08/23 09:17:13;;;;;;;2.90;2.05;;;;;;;;;;5010334;28;20041;-69
2023/08/23 09:19:42;;;;;;;1.83;1.73;;;;;;;;;;5027941;28;20041;-70
2023/08/23 09:22:07;;;;;;;1.55;1.45;;;;;;;;;;5017248;28;20018;-69
2023/08/23 09:24:33;;;;;;;0.60;0.60;;;;;;;;;;4995203;28;20140;-69
2023/08/23 09:27:00;;;;;;;1.20;1.05;;;;;;;;;;5027509;28;20033;-70
2023/08/23 09:29:26;;;;;;;0.60;0.60;;;;;;;;;;5027978;28;20045;-71
2023/08/23 09:31:51;;;;;;;2.22;1.42;;;;;;;;;;5009703;28;20029;-68
2023/08/23 09:34:17;;;;;;;1.45;1.35;;;;;;;;;;5027252;28;20034;-68
2023/08/23 09:36:43;;;;;;;0.63;0.63;;;;;;;;;;5008035;28;20044;-72
2023/08/23 09:39:09;;;;;;;1.17;1.13;;;;;;;;;;4990636;28;20501;-73
2023/08/23 09:41:37;;;;;;;0.57;0.57;;;;;;;;;;5004068;28;20037;-73
2023/08/23 09:44:04;;;;;;;1.77;1.67;;;;;;;;;;5010660;28;20034;-73
2023/08/23 09:46:32;;;;;;;0.50;0.50;;;;;;;;;;5011022;28;20069;-73
2023/08/23 09:49:00;;;;;;;0.50;0.50;;;;;;;;;;5010594;28;20568;-74
2023/08/23 09:51:27;;;;;;;0.50;0.50;;;;;;;;;;5012234;28;20033;-73
2023/08/23 09:53:56;;;;;;;0.60;0.60;;;;;;;;;;4996016;28;20112;-72
2023/08/23 09:56:22;;;;;;;12.48;1.23;;;;;;;;;;5029569;28;20033;-72
2023/08/23 09:58:48;;;;;;;0.50;0.50;;;;;;;;;;5029273;28;20389;-73
2023/08/23 10:01:15;;;;;;;0.50;0.50;;;;;;;;;;5027836;28;20037;-73
2023/08/23 10:03:41;;;;;;;0.60;0.60;;;;;;;;;;5029673;28;20711;-73
2023/08/23 10:06:07;;;;;;;0.93;0.93;;;;;;;;;;5016150;28;20108;-73
2023/08/23 10:08:35;;;;;;;0.65;0.65;;;;;;;;;;5022693;28;20041;-73
2023/08/23 10:11:01;;;;;;;0.60;0.60;;;;;;;;;;4999579;28;20030;-73
2023/08/23 10:13:29;;;;;;;1.10;1.10;;;;;;;;;;5011213;28;20058;-74
2023/08/23 10:15:56;;;;;;;0.60;0.60;;;;;;;;;;5010168;28;20032;-74
2023/08/23 10:18:22;;;;;;;1.98;1.88;;;;;;;;;;5009886;28;20104;-73
2023/08/23 10:20:50;;;;;;;1.08;1.05;;;;;;;;;;5010716;28;20035;-73
2023/08/23 10:23:16;;;;;;;3.70;2.25;;;;;;;;;;5027316;28;20507;-73
2023/08/23 10:25:43;;;;;;;0.80;0.80;;;;;;;;;;5031005;28;20056;-73
2023/08/23 10:28:11;;;;;;;1.02;1.02;;;;;;;;;;5030147;28;20037;-73
2023/08/23 10:30:40;;;;;;;1.17;1.13;;;;;;;;;;5026770;28;20340;-73
2023/08/23 10:33:10;;;;;;;2.45;2.25;;;;;;;;;;5011979;28;20052;-72
2023/08/23 10:35:36;;;;;;;3.05;2.75;;;;;;;;;;5030450;28;20045;-72
2023/08/23 10:38:03;;;;;;;2.83;2.03;;;;;;;;;;5028348;28;20470;-72
2023/08/23 10:40:30;;;;;;;2.10;1.92;;;;;;;;;;5012615;28;20064;-72
2023/08/23 10:42:56;;;;;;;0.93;0.90;;;;;;;;;;5026091;28;20036;-73
2023/08/23 10:45:22;;;;;;;1.55;1.45;;;;;;;;;;5029733;28;20366;-74
2023/08/23 10:47:51;;;;;;;1.50;1.40;;;;;;;;;;5012329;28;20029;-72
2023/08/23 10:50:18;;;;;;;2.20;1.88;;;;;;;;;;5026202;28;20242;-77
2023/08/23 10:52:46;;;;;;;1.88;1.70;;;;;;;;;;5011242;28;20030;-74
2023/08/23 10:55:12;;;;;;;1.02;0.93;;;;;;;;;;5029472;28;20041;-77
2023/08/23 10:57:38;;;;;;;2.08;1.83;;;;;;;;;;5028043;28;20083;-72
2023/08/23 11:00:04;;;;;;;1.35;1.25;;;;;;;;;;5027646;28;20033;-72
2023/08/23 11:02:31;;;;;;;4.15;3.00;;;;;;;;;;5027940;28;20029;-72
2023/08/23 11:04:57;;;;;;;3.95;3.03;;;;;;;;;;5027812;28;20029;-73
2023/08/23 11:07:26;;;;;;;4.18;3.35;;;;;;;;;;5026186;28;20505;-74
2023/08/23 11:09:52;;;;;;;4.20;3.80;;;;;;;;;;5018640;28;20069;-73
2023/08/23 11:12:18;;;;;;;2.63;2.42;;;;;;;;;;5022063;28;20037;-74
2023/08/23 11:14:44;;;;;;;2.58;2.08;;;;;;;;;;5012891;28;20069;-72
2023/08/23 11:17:11;;;;;;;2.28;2.08;;;;;;;;;;5020154;28;20452;-72
2023/08/23 11:19:39;;;;;;;2.22;1.77;;;;;;;;;;5023704;28;20044;-72
2023/08/23 11:22:05;;;;;;;;;;;;;;;;;;5029847;28;20049;-73
2023/08/23 11:24:30;;;;;;;3.00;2.70;;;;;;;;;;5025105;28;20357;-73
2023/08/23 11:26:56;;;;;;;1.85;1.75;;;;;;;;;;5009735;28;20106;-73
2023/08/23 11:29:22;;;;;;;4.63;3.35;;;;;;;;;;5014705;28;20076;-73
2023/08/23 11:31:54;;;;;;;2.53;2.33;;;;;;;;;;5011371;28;20056;-73
2023/08/23 11:34:20;;;;;;;3.10;2.15;;;;;;;;;;5029359;28;20037;-76
2023/08/23 11:36:45;;;;;;;10.18;4.10;;;;;;;;;;5029104;28;20497;-73
2023/08/23 11:39:12;;;;;;;1.67;1.58;;;;;;;;;;5029517;28;20029;-73
2023/08/23 11:41:38;;;;;;;2.22;1.98;;;;;;;;;;5029335;28;20056;-73
2023/08/23 11:44:04;;;;;;;2.58;2.05;;;;;;;;;;5030387;28;20041;-73
2023/08/23 11:46:30;;;;;;;2.55;2.08;;;;;;;;;;5021802;28;20033;-75
2023/08/23 11:48:56;;;;;;;0.80;0.80;;;;;;;;;;5023654;28;20090;-74
2023/08/23 11:51:22;;;;;;;3.67;3.05;;;;;;;;;;5020889;28;20034;-73
2023/08/23 11:53:49;;;;;;;2.33;2.10;;;;;;;;;;5020386;28;20116;-73
2023/08/23 11:56:15;;;;;;;2.88;2.50;;;;;;;;;;5015553;28;20017;-73
2023/08/23 11:58:40;;;;;;;1.10;1.02;;;;;;;;;;5017298;28;20449;-74
2023/08/23 12:01:06;;;;;;;1.55;1.45;;;;;;;;;;5015287;28;20137;-73
2023/08/23 12:03:31;;;;;;;1.33;1.23;;;;;;;;;;5014144;28;20374;-73
2023/08/23 12:05:57;;;;;;;4.32;3.70;;;;;;;;;;5016838;28;20029;-72
2023/08/23 12:08:23;;;;;;;2.28;2.08;;;;;;;;;;5025171;28;20045;-74
2023/08/23 12:10:48;;;;;;;5.68;4.63;;;;;;;;;;5007506;28;20381;-73
2023/08/23 12:13:14;;;;;;;6.25;3.83;;;;;;;;;;5008283;28;20041;-73
2023/08/23 12:15:40;;;;;;;3.70;2.53;;;;;;;;;;5008359;28;20091;-73
2023/08/23 12:18:05;;;;;;;2.55;2.35;;;;;;;;;;5007875;28;20041;-74
2023/08/23 12:20:31;;;;;;;2.25;1.70;;;;;;;;;;5026179;28;20514;-74
2023/08/23 12:22:57;;;;;;;3.85;2.80;;;;;;;;;;5028258;28;20377;-74
2023/08/23 12:25:22;;;;;;;1.92;1.55;;;;;;;;;;5028665;28;20025;-73
2023/08/23 12:27:48;;;;;;;3.90;3.50;;;;;;;;;;5010984;28;20041;-73
2023/08/23 12:30:14;;;;;;;1.92;1.77;;;;;;;;;;5020369;28;20128;-73
2023/08/23 12:32:39;;;;;;;1.45;1.35;;;;;;;;;;5024970;28;20054;-73
2023/08/23 12:35:06;;;;;;;1.40;1.30;;;;;;;;;;5018245;28;20034;-74
2023/08/23 12:37:32;;;;;;;2.67;2.45;;;;;;;;;;5027990;28;20516;-74
2023/08/23 12:39:58;;;;;;;1.42;1.08;;;;;;;;;;5020377;28;20033;-74
2023/08/23 12:42:24;;;;;;;1.83;1.67;;;;;;;;;;5022238;28;20108;-73
2023/08/23 12:44:49;;;;;;;1.58;1.48;;;;;;;;;;5028429;28;20045;-74
2023/08/23 12:47:15;;;;;;;0.77;0.75;;;;;;;;;;5028576;28;20488;-74
2023/08/23 12:49:41;;;;;;;1.98;1.63;;;;;;;;;;5027651;28;20487;-74
2023/08/23 12:52:07;;;;;;;3.78;3.35;;;;;;;;;;5026552;28;20032;-75
2023/08/23 12:54:33;;;;;;;1.02;1.00;;;;;;;;;;5010848;28;20069;-74
2023/08/23 12:56:59;;;;;;;2.50;1.67;;;;;;;;;;5026273;28;20052;-73
2023/08/23 12:59:25;;;;;;;1.77;1.67;;;;;;;;;;5015477;28;20064;-72
2023/08/23 13:01:50;;;;;;;3.25;2.47;;;;;;;;;;5029699;28;20025;-72
2023/08/23 13:04:16;;;;;;;2.33;2.13;;;;;;;;;;5028948;28;20037;-72
2023/08/23 13:06:42;;;;;;;1.67;1.58;;;;;;;;;;5024721;28;20436;-73
2023/08/23 13:09:08;;;;;;;1.48;1.38;;;;;;;;;;5010188;28;20044;-72
2023/08/23 13:11:33;;;;;;;1.52;1.42;;;;;;;;;;5027850;28;20575;-72
2023/08/23 13:13:59;;;;;;;1.13;1.05;;;;;;;;;;5027953;28;20116;-72
2023/08/23 13:16:25;;;;;;;2.83;2.53;;;;;;;;;;5029931;28;20100;-74
2023/08/23 13:18:51;;;;;;;2.40;2.20;;;;;;;;;;5029807;28;20065;-73
2023/08/23 13:21:17;;;;;;;17.60;4.65;;;;;;;;;;5029323;28;20057;-73
2023/08/23 13:23:44;;;;;;;1.65;1.27;;;;;;;;;;5029685;28;20396;-74
2023/08/23 13:26:10;;;;;;;2.55;2.05;;;;;;;;;;5027387;28;20779;-73
2023/08/23 13:28:36;;;;;;;2.33;1.65;;;;;;;;;;5029539;28;20427;-73
2023/08/23 13:31:03;;;;;;;3.00;1.73;;;;;;;;;;5028612;28;20049;-73
2023/08/23 13:33:28;;;;;;;2.20;1.70;;;;;;;;;;5026668;28;20156;-74
2023/08/23 13:35:54;;;;;;;0.98;0.95;;;;;;;;;;5027470;28;20476;-74
2023/08/23 13:38:21;;;;;;;1.33;1.23;;;;;;;;;;5015789;28;20445;-73
2023/08/23 13:40:46;;;;;;;5.07;3.35;;;;;;;;;;5013773;28;20385;-72
2023/08/23 13:43:13;;;;;;;3.55;1.90;;;;;;;;;;5017361;28;20034;-72
2023/08/23 13:45:41;;;;;;;2.67;1.83;;;;;;;;;;5001636;28;20033;-73
2023/08/23 13:48:07;;;;;;;1.88;1.50;;;;;;;;;;5031156;28;20029;-73
2023/08/23 13:50:32;;;;;;;4.05;2.20;;;;;;;;;;5033634;28;20025;-73
2023/08/23 13:52:59;;;;;;;1.55;1.00;;;;;;;;;;5016788;28;20049;-71
2023/08/23 13:55:26;;;;;;;4.00;3.60;;;;;;;;;;5029097;28;20038;-72
2023/08/23 13:57:52;;;;;;;1.98;1.80;;;;;;;;;;5030024;28;20048;-73
2023/08/23 14:00:18;;;;;;;1.42;1.33;;;;;;;;;;5030612;28;20048;-72
2023/08/23 14:02:44;;;;;;;3.10;1.83;;;;;;;;;;5013674;28;20477;-75
2023/08/23 14:05:10;;;;;;;1.95;1.20;;;;;;;;;;5029220;28;20040;-71
2023/08/23 14:07:36;;;;;;;2.22;2.08;;;;;;;;;;5030102;28;20033;-76
2023/08/23 14:10:03;;;;;;;2.50;2.30;;;;;;;;;;5016640;28;20124;-73
2023/08/23 14:12:29;;;;;;;1.67;1.58;;;;;;;;;;5031583;28;20485;-73
2023/08/23 14:14:54;;;;;;;3.92;3.53;;;;;;;;;;5023928;28;20044;-74
2023/08/23 14:17:20;;;;;;;6.28;2.97;;;;;;;;;;5011315;28;20485;-73
2023/08/23 14:19:47;;;;;;;2.60;2.35;;;;;;;;;;5011012;28;20113;-73
2023/08/23 14:22:15;;;;;;;3.72;2.83;;;;;;;;;;5011055;28;20513;-73
2023/08/23 14:24:41;;;;;;;2.22;1.48;;;;;;;;;;4993080;28;20045;-73
2023/08/23 14:27:07;;;;;;;1.85;1.75;;;;;;;;;;5020111;28;20033;-77
2023/08/23 14:29:32;;;;;;;4.93;3.00;;;;;;;;;;5030477;28;20385;-73
2023/08/23 14:31:58;;;;;;;3.70;1.85;;;;;;;;;;5029938;28;20044;-73
2023/08/23 14:34:24;;;;;;;1.42;1.33;;;;;;;;;;5012465;28;20033;-73
2023/08/23 14:36:49;;;;;;;0.70;0.65;;;;;;;;;;5026819;28;20032;-75